createdAt,value
2017-07-04T00:00:59.306Z,17.46
2017-07-04T00:10:59.279Z,17.33
2017-07-04T00:20:59.331Z,17.33
2017-07-04T00:31:00.192Z,17.13
2017-07-04T00:40:59.283Z,17.04
2017-07-04T00:50:59.379Z,16.65
2017-07-04T01:00:59.279Z,16.62
2017-07-04T01:10:59.414Z,16.63
2017-07-04T01:20:59.402Z,16.44
2017-07-04T01:30:59.452Z,16.38
2017-07-04T01:40:59.338Z,16.01
2017-07-04T01:50:59.322Z,16.04
2017-07-04T02:00:59.364Z,15.7
2017-07-04T02:10:59.366Z,15.67
2017-07-04T02:20:59.404Z,15.93
2017-07-04T02:30:59.426Z,15.93
2017-07-04T02:40:59.498Z,15.93
2017-07-04T02:50:59.425Z,15.97
2017-07-04T03:00:59.535Z,16.3
2017-07-04T03:10:59.437Z,16.45
2017-07-04T03:20:59.393Z,16.58
2017-07-04T03:30:59.404Z,16.7
2017-07-04T03:40:59.533Z,16.83
2017-07-04T03:50:59.428Z,16.88
2017-07-04T04:00:59.510Z,17.07
2017-07-04T04:10:59.517Z,17.15
2017-07-04T04:20:59.462Z,17.28
2017-07-04T04:30:59.490Z,17.36
2017-07-04T04:40:59.592Z,17.74
2017-07-04T04:50:59.615Z,17.85
2017-07-04T05:01:00.622Z,17.95
2017-07-04T05:10:59.812Z,17.97
2017-07-04T05:20:59.622Z,18.29
2017-07-04T05:30:59.743Z,18.37
2017-07-04T05:40:59.799Z,18.43
2017-07-04T05:50:59.674Z,18.55
2017-07-04T06:00:59.614Z,18.73
2017-07-04T06:10:59.627Z,18.62
2017-07-04T06:20:59.604Z,18.68
2017-07-04T06:30:59.726Z,18.67
2017-07-04T06:40:59.675Z,18.42
2017-07-04T06:50:59.633Z,18.24
2017-07-04T07:00:59.636Z,18.06
2017-07-04T07:10:59.672Z,18.39
2017-07-04T07:20:59.626Z,18.64
2017-07-04T07:30:59.735Z,18.72
2017-07-04T07:40:59.650Z,19.2
2017-07-04T07:50:59.727Z,19.55
2017-07-04T08:00:59.719Z,20.33
2017-07-04T08:10:59.719Z,21.78
2017-07-04T08:20:59.762Z,22.46
2017-07-04T08:30:59.701Z,22.25
2017-07-04T08:40:59.720Z,23.85
2017-07-04T08:50:59.697Z,24.91
2017-07-04T09:00:59.768Z,26.94
2017-07-04T09:10:59.716Z,26.46
2017-07-04T09:20:59.721Z,25.32
2017-07-04T09:30:59.728Z,24.79
2017-07-04T09:40:59.752Z,24.91
2017-07-04T09:50:59.999Z,24.39
2017-07-04T10:01:00.493Z,24.63
2017-07-04T10:10:59.799Z,24.57
2017-07-04T10:20:59.763Z,24.42
2017-07-04T10:31:00.109Z,24.41
2017-07-04T10:40:59.927Z,23.83
2017-07-04T10:50:59.780Z,23.87
2017-07-04T11:01:00.157Z,24
2017-07-04T11:10:59.845Z,24.5
2017-07-04T11:20:59.750Z,25.22
2017-07-04T11:30:59.761Z,24.91
2017-07-04T11:40:59.779Z,25.27
2017-07-04T11:50:59.816Z,24.56
2017-07-04T12:00:59.932Z,24.85
2017-07-04T12:10:59.752Z,24.69
2017-07-04T12:20:59.763Z,24.52
2017-07-04T12:30:59.771Z,24.22
2017-07-04T12:40:59.780Z,24.87
2017-07-04T12:50:59.854Z,24.73
2017-07-04T13:00:59.847Z,24.24
2017-07-04T13:10:59.878Z,24.5
2017-07-04T13:21:00.845Z,25.28
2017-07-04T13:30:59.781Z,24.71
2017-07-04T13:40:59.920Z,24.75
2017-07-04T13:50:59.788Z,24.75
2017-07-04T14:00:59.781Z,24.82
2017-07-04T14:10:59.853Z,24.92
2017-07-04T14:20:59.819Z,24.69
2017-07-04T14:30:59.790Z,24.79
2017-07-04T14:40:59.797Z,25.02
2017-07-04T14:50:59.791Z,25.42
2017-07-04T15:00:59.851Z,25.39
2017-07-04T15:10:59.840Z,25.25
2017-07-04T15:20:59.818Z,25.13
2017-07-04T15:30:59.842Z,25.09
2017-07-04T15:40:59.815Z,24.92
2017-07-04T15:50:59.833Z,24.88
2017-07-04T16:00:59.771Z,24.97
2017-07-04T16:10:59.814Z,24.88
2017-07-04T16:20:59.822Z,25.07
2017-07-04T16:30:59.836Z,25.16
2017-07-04T16:40:59.797Z,25
2017-07-04T16:50:59.835Z,24.64
2017-07-04T17:00:59.833Z,24.31
2017-07-04T17:10:59.803Z,24.76
2017-07-04T17:20:59.848Z,24.57
2017-07-04T17:30:59.830Z,24.24
2017-07-04T17:40:59.917Z,23.76
2017-07-04T17:50:59.802Z,23.64
2017-07-04T18:00:59.918Z,23.31
2017-07-04T18:10:59.859Z,22.86
2017-07-04T18:20:59.904Z,22.43
2017-07-04T18:31:00.126Z,22.31
2017-07-04T18:40:59.919Z,22.09
2017-07-04T18:50:59.858Z,21.91
2017-07-04T19:01:01.865Z,21.69
2017-07-04T19:10:59.823Z,21.26
2017-07-04T19:20:59.846Z,20.66
2017-07-04T19:30:59.847Z,20.03
2017-07-04T19:41:00.155Z,19.58
2017-07-04T19:50:59.895Z,19.42
2017-07-04T20:01:00.902Z,19.28
2017-07-04T20:11:00.059Z,19.28
2017-07-04T20:20:59.925Z,18.98
2017-07-04T20:30:59.995Z,18.94
2017-07-04T20:41:00.058Z,19.13
2017-07-04T20:50:59.855Z,18.99
2017-07-04T21:01:00.106Z,18.84
2017-07-04T21:11:00.017Z,18.84
2017-07-04T21:20:59.839Z,18.77
2017-07-04T21:30:59.858Z,18.68
2017-07-04T21:40:59.872Z,18.64
2017-07-04T21:50:59.851Z,18.34
2017-07-04T22:00:59.906Z,17.99
2017-07-04T22:10:59.927Z,17.64
2017-07-04T22:20:59.936Z,17.5
2017-07-04T22:31:00.036Z,17.28
2017-07-04T22:40:59.902Z,17.33
2017-07-04T22:50:59.892Z,17.41
2017-07-04T23:01:00.524Z,17.53
2017-07-04T23:10:59.979Z,17.67
2017-07-04T23:21:00.841Z,17.59
2017-07-04T23:30:59.975Z,17.5
2017-07-04T23:40:59.859Z,17.5
2017-07-04T23:50:59.991Z,17.41
